Alanreed, Texas
Current Conditions -  °F | °C
As of 12:35 PM on Sunday 23 Nov 2014 (Local Time) from KPPA Reporting Station
Scattered Clouds Scattered Clouds  
Wind Chill: 10°   Ceiling: Unl
Heat Index: 10°   Visibility: 10mi
Dew Point: -1°   Wind: 37mph
Humidity: 47%   Direction: 360°N
Pressure: 29.59"   Gusts: 51mph
Location:  35.21°N, 100.74°W
Report Text: KPPA 231835Z AUTO 36032G44KT 10SM SCT042 10/00 A2959 RMK AO2 T01041005 PNO
Loading
Personal Weather Stations






























Interactive Weather Map New forecast layout! Learn more

10-Day Weather Forecast

Advertisements
Track Severe Weather on mobile